createdAt,value
2022-08-08T00:00:52.967Z,1.60
2022-08-08T00:06:02.736Z,0.88
2022-08-08T00:11:47.133Z,0.70
2022-08-08T00:17:22.929Z,0.80
2022-08-08T00:22:48.684Z,0.70
2022-08-08T00:28:34.244Z,0.80
2022-08-08T00:34:26.957Z,0.73
2022-08-08T00:41:10.211Z,0.63
2022-08-08T00:46:01.211Z,0.70
2022-08-08T00:51:51.736Z,1.20
2022-08-08T00:57:35.864Z,0.68
2022-08-08T01:04:01.223Z,0.70
2022-08-08T01:09:36.845Z,0.73
2022-08-08T01:14:57.265Z,0.80
2022-08-08T01:20:35.675Z,0.70
2022-08-08T01:26:13.235Z,0.82
2022-08-08T01:32:15.584Z,0.80
2022-08-08T01:37:57.376Z,0.73
2022-08-08T01:43:53.471Z,0.95
2022-08-08T01:49:37.524Z,0.80
2022-08-08T01:56:27.640Z,0.90
2022-08-08T02:01:59.582Z,0.80
2022-08-08T02:07:41.671Z,0.65
2022-08-08T02:13:53.029Z,0.80
2022-08-08T02:19:10.105Z,0.68
2022-08-08T02:24:54.761Z,0.80
2022-08-08T02:30:25.559Z,0.88
2022-08-08T02:36:23.743Z,0.70
2022-08-08T02:42:03.637Z,0.70
2022-08-08T02:47:55.813Z,0.70
2022-08-08T02:53:27.932Z,0.93
2022-08-08T02:59:17.312Z,0.80
2022-08-08T03:05:21.886Z,0.80
2022-08-08T03:11:47.526Z,0.90
2022-08-08T03:17:20.243Z,0.80
2022-08-08T03:22:57.110Z,0.77
2022-08-08T03:28:41.200Z,0.70
2022-08-08T03:34:02.475Z,1.00
2022-08-08T03:39:26.008Z,0.65
2022-08-08T03:44:52.298Z,0.88
2022-08-08T03:50:20.135Z,0.85
2022-08-08T03:55:57.327Z,0.70
2022-08-08T04:01:25.865Z,0.90
2022-08-08T04:07:01.385Z,0.80
2022-08-08T04:12:27.379Z,0.95
2022-08-08T04:17:59.145Z,0.80
2022-08-08T04:23:21.932Z,0.90
2022-08-08T04:28:44.803Z,0.98
2022-08-08T04:34:07.411Z,0.88
2022-08-08T04:40:04.226Z,1.08
2022-08-08T04:45:10.700Z,0.90
2022-08-08T04:50:38.387Z,1.00
2022-08-08T04:56:04.218Z,0.90
2022-08-08T05:01:35.539Z,0.93
2022-08-08T05:07:09.418Z,0.98
2022-08-08T05:12:31.845Z,0.93
2022-08-08T05:17:57.977Z,1.20
2022-08-08T05:23:20.590Z,1.02
2022-08-08T05:28:57.468Z,1.10
2022-08-08T05:34:50.009Z,0.90
2022-08-08T05:40:16.942Z,1.15
2022-08-08T05:45:42.773Z,1.13
2022-08-08T05:51:15.608Z,1.30
2022-08-08T05:56:47.408Z,0.93
2022-08-08T06:02:41.024Z,1.10
2022-08-08T06:09:59.105Z,1.10
2022-08-08T06:15:07.569Z,0.90
2022-08-08T06:20:36.224Z,0.95
2022-08-08T06:26:38.651Z,0.80
2022-08-08T06:31:52.402Z,0.70
2022-08-08T06:37:37.301Z,0.80
2022-08-08T06:43:06.108Z,0.85
2022-08-08T06:48:51.150Z,1.02
2022-08-08T06:54:13.303Z,0.80
2022-08-08T07:00:01.735Z,0.70
2022-08-08T07:05:24.861Z,0.90
2022-08-08T07:10:55.013Z,1.00
2022-08-08T07:16:29.074Z,0.50
2022-08-08T07:22:04.952Z,0.77
2022-08-08T07:27:47.324Z,0.80
2022-08-08T07:33:22.993Z,0.80
2022-08-08T07:38:52.840Z,0.82
2022-08-08T07:44:36.936Z,0.70
2022-08-08T07:49:57.490Z,0.82
2022-08-08T07:55:29.282Z,0.68
2022-08-08T08:01:04.513Z,1.65
2022-08-08T08:06:27.365Z,0.73
2022-08-08T08:11:51.883Z,0.70
2022-08-08T08:17:22.906Z,0.73
2022-08-08T08:22:44.848Z,0.77
2022-08-08T08:28:09.638Z,0.85
2022-08-08T08:33:32.615Z,0.80
2022-08-08T08:38:57.143Z,0.60
2022-08-08T08:44:29.053Z,0.57
2022-08-08T08:49:53.057Z,1.40
2022-08-08T08:55:16.177Z,0.65
2022-08-08T09:01:03.150Z,1.50
2022-08-08T09:06:37.958Z,0.90
2022-08-08T09:12:09.718Z,0.90
2022-08-08T09:17:41.952Z,0.63
2022-08-08T09:23:17.838Z,0.70
2022-08-08T09:28:47.264Z,1.00
2022-08-08T09:34:32.834Z,0.80
2022-08-08T09:40:03.235Z,0.70
2022-08-08T09:46:03.112Z,1.20
2022-08-08T09:51:30.409Z,0.90
2022-08-08T09:57:16.082Z,0.50
2022-08-08T10:02:40.563Z,1.42
2022-08-08T10:08:02.600Z,0.63
2022-08-08T10:13:32.507Z,0.68
2022-08-08T10:19:04.633Z,0.70
2022-08-08T10:24:29.592Z,0.70
2022-08-08T10:30:01.035Z,0.70
2022-08-08T10:36:08.998Z,0.63
2022-08-08T10:41:20.090Z,0.80
2022-08-08T10:46:41.794Z,0.63
2022-08-08T10:52:07.230Z,0.73
2022-08-08T10:57:45.314Z,0.63
2022-08-08T11:03:16.509Z,0.60
2022-08-08T11:08:41.974Z,0.60
2022-08-08T11:14:06.439Z,0.60
2022-08-08T11:19:29.877Z,0.60
2022-08-08T11:24:54.916Z,0.90
2022-08-08T11:30:19.895Z,0.80
2022-08-08T11:35:44.032Z,0.80
2022-08-08T11:41:05.149Z,0.70
2022-08-08T11:46:30.470Z,0.70
2022-08-08T11:51:54.508Z,0.60
2022-08-08T11:57:18.492Z,0.65
2022-08-08T12:02:51.231Z,0.70
2022-08-08T12:08:16.543Z,0.70
2022-08-08T12:14:02.675Z,0.75
2022-08-08T12:19:21.873Z,0.88
2022-08-08T12:24:56.319Z,0.70
2022-08-08T12:30:21.712Z,0.60
2022-08-08T12:35:53.049Z,0.70
2022-08-08T12:41:33.412Z,0.77
2022-08-08T12:47:00.248Z,0.50
2022-08-08T12:52:28.558Z,0.85
2022-08-08T12:57:56.553Z,0.75
2022-08-08T13:03:34.190Z,0.70
2022-08-08T13:08:56.388Z,0.70
2022-08-08T13:14:17.623Z,0.90
2022-08-08T13:19:49.936Z,0.60
2022-08-08T13:25:22.266Z,0.55
2022-08-08T13:30:43.720Z,0.80
2022-08-08T13:36:07.723Z,0.63
2022-08-08T13:41:38.916Z,0.60
2022-08-08T13:47:07.116Z,0.55
2022-08-08T13:52:37.899Z,0.80
2022-08-08T13:58:08.049Z,0.60
2022-08-08T14:03:52.219Z,0.60
2022-08-08T14:09:25.303Z,0.47
2022-08-08T14:14:51.648Z,0.60
2022-08-08T14:20:16.742Z,0.65
2022-08-08T14:26:00.663Z,0.50
2022-08-08T14:32:05.988Z,0.70
2022-08-08T14:37:16.702Z,0.60
2022-08-08T14:42:55.228Z,0.50
2022-08-08T14:48:27.493Z,0.60
2022-08-08T14:53:59.126Z,0.98
2022-08-08T14:59:22.536Z,0.50
2022-08-08T15:05:08.135Z,0.60
2022-08-08T15:10:32.429Z,0.82
2022-08-08T15:16:02.112Z,0.50
2022-08-08T15:21:30.023Z,0.50
2022-08-08T15:26:52.607Z,0.93
2022-08-08T15:32:20.732Z,0.70
2022-08-08T15:37:43.759Z,0.63
2022-08-08T15:43:35.027Z,0.40
2022-08-08T15:48:45.698Z,0.50
2022-08-08T15:54:06.922Z,0.50
2022-08-08T16:00:06.473Z,1.17
2022-08-08T16:05:23.597Z,0.60
2022-08-08T16:13:03.377Z,0.60
2022-08-08T16:16:25.640Z,0.63
2022-08-08T16:21:48.938Z,0.50
2022-08-08T16:27:18.121Z,0.50
2022-08-08T16:32:39.427Z,0.55
2022-08-08T16:38:01.976Z,0.40
2022-08-08T16:43:24.235Z,0.77
2022-08-08T16:48:44.822Z,0.70
2022-08-08T16:55:22.583Z,0.85
2022-08-08T16:59:52.439Z,0.80
2022-08-08T17:05:14.137Z,0.70
2022-08-08T17:10:34.746Z,0.47
2022-08-08T17:15:57.015Z,0.70
2022-08-08T17:21:18.665Z,0.65
2022-08-08T17:26:42.200Z,0.80
2022-08-08T17:32:05.879Z,0.50
2022-08-08T17:37:28.429Z,0.60
2022-08-08T17:42:53.408Z,0.80
2022-08-08T17:48:29.428Z,0.57
2022-08-08T17:53:57.776Z,0.70
2022-08-08T17:59:20.831Z,0.80
2022-08-08T18:04:50.501Z,0.65
2022-08-08T18:10:14.033Z,0.50
2022-08-08T18:15:34.877Z,0.63
2022-08-08T18:20:59.624Z,0.60
2022-08-08T18:26:20.465Z,0.57
2022-08-08T18:31:41.123Z,0.85
2022-08-08T18:37:08.074Z,0.60
2022-08-08T18:42:29.221Z,0.70
2022-08-08T18:47:49.907Z,0.90
2022-08-08T18:53:10.987Z,0.60
2022-08-08T18:58:33.329Z,0.90
2022-08-08T19:04:05.350Z,0.93
2022-08-08T19:09:49.617Z,0.80
2022-08-08T19:15:13.705Z,0.65
2022-08-08T19:20:37.403Z,0.70
2022-08-08T19:26:20.274Z,0.70
2022-08-08T19:31:40.847Z,0.90
2022-08-08T19:37:07.797Z,1.52
2022-08-08T19:47:59.656Z,3.10
2022-08-08T19:53:37.946Z,2.83
2022-08-08T19:59:00.729Z,2.45
2022-08-08T20:04:22.357Z,1.20
2022-08-08T20:09:55.270Z,0.95
2022-08-08T20:15:17.436Z,0.95
2022-08-08T20:20:38.320Z,1.15
2022-08-08T20:26:02.357Z,1.02
2022-08-08T20:31:22.993Z,1.05
2022-08-08T20:36:44.660Z,1.00
2022-08-08T20:42:06.917Z,0.90
2022-08-08T20:47:36.672Z,1.02
2022-08-08T20:53:00.976Z,1.27
2022-08-08T20:58:23.274Z,1.20
2022-08-08T21:03:55.607Z,1.23
2022-08-08T21:09:22.045Z,1.10
2022-08-08T21:14:43.594Z,0.80
2022-08-08T21:20:10.426Z,1.20
2022-08-08T21:25:36.238Z,1.10
2022-08-08T21:30:57.237Z,1.20
2022-08-08T21:36:21.820Z,1.10
2022-08-08T21:41:53.736Z,1.00
2022-08-08T21:48:05.524Z,1.10
2022-08-08T21:54:31.089Z,1.10
2022-08-08T21:58:43.137Z,1.40
2022-08-08T22:04:15.444Z,1.10
2022-08-08T22:09:41.129Z,1.20
2022-08-08T22:15:07.280Z,1.20
2022-08-08T22:20:28.421Z,1.13
2022-08-08T22:26:28.244Z,1.23
2022-08-08T22:31:30.307Z,1.13
2022-08-08T22:36:56.063Z,1.15
2022-08-08T22:42:27.164Z,1.30
2022-08-08T22:47:49.458Z,1.00
2022-08-08T22:54:30.991Z,1.08
2022-08-08T22:58:54.164Z,0.93
2022-08-08T23:04:18.401Z,0.80
2022-08-08T23:09:55.231Z,1.02
2022-08-08T23:16:39.331Z,1.00
2022-08-08T23:21:05.291Z,0.90
2022-08-08T23:26:28.788Z,0.75
2022-08-08T23:31:49.787Z,1.00
2022-08-08T23:37:11.584Z,0.90
2022-08-08T23:42:33.070Z,1.05
2022-08-08T23:49:04.617Z,0.90
2022-08-08T23:54:05.418Z,1.13
2022-08-08T23:59:19.737Z,1.15
